sensor_id;sensor_type;location;lat;lon;timestamp;P1;durP1;ratioP1;P2;durP2;ratioP2
23410;SDS011;11878;51.774;7.220;2023-07-13T00:00:50;6.07;;;1.70;;
23410;SDS011;11878;51.774;7.220;2023-07-13T00:03:52;4.43;;;1.50;;
23410;SDS011;11878;51.774;7.220;2023-07-13T00:06:53;4.73;;;1.97;;
23410;SDS011;11878;51.774;7.220;2023-07-13T00:09:55;4.23;;;2.10;;
23410;SDS011;11878;51.774;7.220;2023-07-13T00:12:57;4.37;;;1.40;;
23410;SDS011;11878;51.774;7.220;2023-07-13T00:15:59;5.57;;;1.53;;
23410;SDS011;11878;51.774;7.220;2023-07-13T00:19:02;5.27;;;1.70;;
23410;SDS011;11878;51.774;7.220;2023-07-13T00:22:04;5.63;;;2.03;;
23410;SDS011;11878;51.774;7.220;2023-07-13T00:25:06;3.93;;;1.70;;
23410;SDS011;11878;51.774;7.220;2023-07-13T00:28:10;3.43;;;1.90;;
23410;SDS011;11878;51.774;7.220;2023-07-13T00:31:12;4.03;;;1.20;;
23410;SDS011;11878;51.774;7.220;2023-07-13T00:34:16;4.07;;;1.90;;
23410;SDS011;11878;51.774;7.220;2023-07-13T00:37:18;6.93;;;2.17;;
23410;SDS011;11878;51.774;7.220;2023-07-13T00:40:20;5.20;;;1.90;;
23410;SDS011;11878;51.774;7.220;2023-07-13T00:43:23;10.37;;;2.20;;
23410;SDS011;11878;51.774;7.220;2023-07-13T00:46:31;3.50;;;1.43;;
23410;SDS011;11878;51.774;7.220;2023-07-13T00:49:36;6.60;;;1.83;;
23410;SDS011;11878;51.774;7.220;2023-07-13T00:52:39;5.90;;;2.03;;
23410;SDS011;11878;51.774;7.220;2023-07-13T00:55:44;9.10;;;2.10;;
23410;SDS011;11878;51.774;7.220;2023-07-13T00:58:47;5.30;;;1.90;;
23410;SDS011;11878;51.774;7.220;2023-07-13T01:01:49;4.13;;;2.17;;
23410;SDS011;11878;51.774;7.220;2023-07-13T01:04:51;7.00;;;1.73;;
23410;SDS011;11878;51.774;7.220;2023-07-13T01:07:53;5.80;;;2.37;;
23410;SDS011;11878;51.774;7.220;2023-07-13T01:10:55;6.07;;;1.83;;
23410;SDS011;11878;51.774;7.220;2023-07-13T01:13:59;6.17;;;2.40;;
23410;SDS011;11878;51.774;7.220;2023-07-13T01:17:02;4.50;;;1.70;;
23410;SDS011;11878;51.774;7.220;2023-07-13T01:20:05;8.70;;;1.93;;
23410;SDS011;11878;51.774;7.220;2023-07-13T01:23:10;3.93;;;1.53;;
23410;SDS011;11878;51.774;7.220;2023-07-13T01:26:14;5.97;;;2.00;;
23410;SDS011;11878;51.774;7.220;2023-07-13T01:29:15;4.30;;;1.97;;
23410;SDS011;11878;51.774;7.220;2023-07-13T01:32:22;10.30;;;2.40;;
23410;SDS011;11878;51.774;7.220;2023-07-13T01:35:29;7.27;;;1.90;;
23410;SDS011;11878;51.774;7.220;2023-07-13T01:38:31;5.00;;;1.87;;
23410;SDS011;11878;51.774;7.220;2023-07-13T01:41:34;6.13;;;2.10;;
23410;SDS011;11878;51.774;7.220;2023-07-13T01:44:36;5.70;;;1.77;;
23410;SDS011;11878;51.774;7.220;2023-07-13T01:47:37;3.37;;;1.40;;
23410;SDS011;11878;51.774;7.220;2023-07-13T01:50:39;6.00;;;1.80;;
23410;SDS011;11878;51.774;7.220;2023-07-13T01:53:42;9.83;;;1.97;;
23410;SDS011;11878;51.774;7.220;2023-07-13T01:56:43;4.00;;;1.30;;
23410;SDS011;11878;51.774;7.220;2023-07-13T01:59:45;10.03;;;1.97;;
23410;SDS011;11878;51.774;7.220;2023-07-13T02:02:47;6.80;;;1.70;;
23410;SDS011;11878;51.774;7.220;2023-07-13T02:05:50;4.07;;;1.30;;
23410;SDS011;11878;51.774;7.220;2023-07-13T02:08:51;5.67;;;1.10;;
23410;SDS011;11878;51.774;7.220;2023-07-13T02:11:53;5.00;;;1.20;;
23410;SDS011;11878;51.774;7.220;2023-07-13T02:14:55;8.70;;;1.10;;
23410;SDS011;11878;51.774;7.220;2023-07-13T02:17:57;9.43;;;1.13;;
23410;SDS011;11878;51.774;7.220;2023-07-13T02:20:59;5.57;;;1.40;;
23410;SDS011;11878;51.774;7.220;2023-07-13T02:24:01;9.30;;;1.37;;
23410;SDS011;11878;51.774;7.220;2023-07-13T02:30:30;4.60;;;1.20;;
23410;SDS011;11878;51.774;7.220;2023-07-13T02:33:32;4.33;;;1.60;;
23410;SDS011;11878;51.774;7.220;2023-07-13T02:36:34;6.17;;;1.20;;
23410;SDS011;11878;51.774;7.220;2023-07-13T02:39:36;5.20;;;1.23;;
23410;SDS011;11878;51.774;7.220;2023-07-13T02:42:38;4.63;;;1.13;;
23410;SDS011;11878;51.774;7.220;2023-07-13T02:45:43;4.97;;;1.10;;
23410;SDS011;11878;51.774;7.220;2023-07-13T02:48:45;5.60;;;1.30;;
23410;SDS011;11878;51.774;7.220;2023-07-13T02:51:47;4.50;;;1.20;;
23410;SDS011;11878;51.774;7.220;2023-07-13T02:54:49;2.67;;;1.00;;
23410;SDS011;11878;51.774;7.220;2023-07-13T02:57:51;1.73;;;0.73;;
23410;SDS011;11878;51.774;7.220;2023-07-13T03:00:53;4.27;;;1.40;;
23410;SDS011;11878;51.774;7.220;2023-07-13T03:03:57;8.77;;;2.10;;
23410;SDS011;11878;51.774;7.220;2023-07-13T03:06:59;4.93;;;1.20;;
23410;SDS011;11878;51.774;7.220;2023-07-13T03:10:08;3.90;;;1.00;;
23410;SDS011;11878;51.774;7.220;2023-07-13T03:13:17;2.60;;;1.03;;
23410;SDS011;11878;51.774;7.220;2023-07-13T03:16:19;7.73;;;1.70;;
23410;SDS011;11878;51.774;7.220;2023-07-13T03:19:23;6.93;;;1.03;;
23410;SDS011;11878;51.774;7.220;2023-07-13T03:22:26;13.63;;;1.47;;
23410;SDS011;11878;51.774;7.220;2023-07-13T03:25:28;3.93;;;1.10;;
23410;SDS011;11878;51.774;7.220;2023-07-13T03:28:30;4.13;;;1.17;;
23410;SDS011;11878;51.774;7.220;2023-07-13T03:31:33;6.70;;;1.23;;
23410;SDS011;11878;51.774;7.220;2023-07-13T03:34:36;5.07;;;1.07;;
23410;SDS011;11878;51.774;7.220;2023-07-13T03:37:39;6.47;;;1.30;;
23410;SDS011;11878;51.774;7.220;2023-07-13T03:40:48;3.97;;;1.20;;
23410;SDS011;11878;51.774;7.220;2023-07-13T03:43:51;7.30;;;1.03;;
23410;SDS011;11878;51.774;7.220;2023-07-13T03:46:55;8.23;;;1.20;;
23410;SDS011;11878;51.774;7.220;2023-07-13T03:49:57;7.63;;;1.13;;
23410;SDS011;11878;51.774;7.220;2023-07-13T03:52:59;4.43;;;1.17;;
23410;SDS011;11878;51.774;7.220;2023-07-13T03:56:02;5.97;;;1.40;;
23410;SDS011;11878;51.774;7.220;2023-07-13T03:59:04;1.53;;;0.90;;
23410;SDS011;11878;51.774;7.220;2023-07-13T04:02:06;3.17;;;1.27;;
23410;SDS011;11878;51.774;7.220;2023-07-13T04:05:08;6.37;;;1.60;;
23410;SDS011;11878;51.774;7.220;2023-07-13T04:08:10;5.80;;;1.03;;
23410;SDS011;11878;51.774;7.220;2023-07-13T04:11:12;6.77;;;1.10;;
23410;SDS011;11878;51.774;7.220;2023-07-13T04:14:14;3.40;;;1.00;;
23410;SDS011;11878;51.774;7.220;2023-07-13T04:17:15;4.70;;;1.67;;
23410;SDS011;11878;51.774;7.220;2023-07-13T04:20:17;8.93;;;1.10;;
23410;SDS011;11878;51.774;7.220;2023-07-13T04:23:21;8.20;;;1.30;;
23410;SDS011;11878;51.774;7.220;2023-07-13T04:26:22;7.73;;;1.70;;
23410;SDS011;11878;51.774;7.220;2023-07-13T04:29:24;1.93;;;1.03;;
23410;SDS011;11878;51.774;7.220;2023-07-13T04:32:26;4.23;;;1.07;;
23410;SDS011;11878;51.774;7.220;2023-07-13T04:35:28;3.97;;;1.07;;
23410;SDS011;11878;51.774;7.220;2023-07-13T04:38:30;3.17;;;1.20;;
23410;SDS011;11878;51.774;7.220;2023-07-13T04:41:33;3.83;;;1.07;;
23410;SDS011;11878;51.774;7.220;2023-07-13T04:44:35;6.57;;;1.33;;
23410;SDS011;11878;51.774;7.220;2023-07-13T04:47:37;8.90;;;1.50;;
23410;SDS011;11878;51.774;7.220;2023-07-13T04:50:39;8.60;;;1.50;;
23410;SDS011;11878;51.774;7.220;2023-07-13T04:53:41;5.43;;;1.30;;
23410;SDS011;11878;51.774;7.220;2023-07-13T04:56:43;5.83;;;1.57;;
23410;SDS011;11878;51.774;7.220;2023-07-13T04:59:44;6.13;;;1.00;;
23410;SDS011;11878;51.774;7.220;2023-07-13T05:02:46;10.60;;;1.50;;
23410;SDS011;11878;51.774;7.220;2023-07-13T05:05:55;4.87;;;1.13;;
23410;SDS011;11878;51.774;7.220;2023-07-13T05:08:58;6.30;;;1.50;;
23410;SDS011;11878;51.774;7.220;2023-07-13T05:12:00;9.93;;;1.67;;
23410;SDS011;11878;51.774;7.220;2023-07-13T05:15:02;4.43;;;1.30;;
23410;SDS011;11878;51.774;7.220;2023-07-13T05:18:04;5.77;;;1.43;;
23410;SDS011;11878;51.774;7.220;2023-07-13T05:21:07;9.53;;;1.90;;
23410;SDS011;11878;51.774;7.220;2023-07-13T05:24:10;5.40;;;1.60;;
23410;SDS011;11878;51.774;7.220;2023-07-13T05:27:25;7.67;;;1.30;;
23410;SDS011;11878;51.774;7.220;2023-07-13T05:30:27;5.77;;;1.20;;
23410;SDS011;11878;51.774;7.220;2023-07-13T05:33:29;11.40;;;1.83;;
23410;SDS011;11878;51.774;7.220;2023-07-13T05:36:30;9.07;;;1.77;;
23410;SDS011;11878;51.774;7.220;2023-07-13T05:39:32;6.77;;;1.60;;
23410;SDS011;11878;51.774;7.220;2023-07-13T05:42:34;5.33;;;1.17;;
23410;SDS011;11878;51.774;7.220;2023-07-13T05:45:36;10.13;;;1.77;;
23410;SDS011;11878;51.774;7.220;2023-07-13T05:48:38;8.60;;;1.40;;
23410;SDS011;11878;51.774;7.220;2023-07-13T05:51:40;12.37;;;1.43;;
23410;SDS011;11878;51.774;7.220;2023-07-13T05:54:41;4.90;;;1.50;;
23410;SDS011;11878;51.774;7.220;2023-07-13T05:57:43;9.50;;;1.80;;
23410;SDS011;11878;51.774;7.220;2023-07-13T06:00:45;14.10;;;2.23;;
23410;SDS011;11878;51.774;7.220;2023-07-13T06:03:48;7.63;;;1.90;;
23410;SDS011;11878;51.774;7.220;2023-07-13T06:06:50;6.77;;;1.40;;
23410;SDS011;11878;51.774;7.220;2023-07-13T06:09:52;7.67;;;1.50;;
23410;SDS011;11878;51.774;7.220;2023-07-13T06:12:54;8.53;;;1.43;;
23410;SDS011;11878;51.774;7.220;2023-07-13T06:15:56;9.07;;;1.77;;
23410;SDS011;11878;51.774;7.220;2023-07-13T06:18:57;6.37;;;1.97;;
23410;SDS011;11878;51.774;7.220;2023-07-13T06:21:59;7.13;;;1.67;;
23410;SDS011;11878;51.774;7.220;2023-07-13T06:25:02;6.37;;;1.80;;
23410;SDS011;11878;51.774;7.220;2023-07-13T06:28:04;10.00;;;1.87;;
23410;SDS011;11878;51.774;7.220;2023-07-13T06:31:06;7.27;;;2.10;;
23410;SDS011;11878;51.774;7.220;2023-07-13T06:34:11;7.03;;;1.73;;
23410;SDS011;11878;51.774;7.220;2023-07-13T06:37:12;11.07;;;1.83;;
23410;SDS011;11878;51.774;7.220;2023-07-13T06:40:14;12.80;;;2.80;;
23410;SDS011;11878;51.774;7.220;2023-07-13T06:43:16;11.97;;;2.60;;
23410;SDS011;11878;51.774;7.220;2023-07-13T06:46:22;9.90;;;2.53;;
23410;SDS011;11878;51.774;7.220;2023-07-13T06:49:24;6.57;;;2.33;;
23410;SDS011;11878;51.774;7.220;2023-07-13T06:52:26;6.53;;;2.80;;
23410;SDS011;11878;51.774;7.220;2023-07-13T06:55:28;12.53;;;3.47;;
23410;SDS011;11878;51.774;7.220;2023-07-13T06:58:30;7.23;;;2.70;;
23410;SDS011;11878;51.774;7.220;2023-07-13T07:01:32;11.23;;;3.13;;
23410;SDS011;11878;51.774;7.220;2023-07-13T07:04:34;12.63;;;2.73;;
23410;SDS011;11878;51.774;7.220;2023-07-13T07:07:36;13.93;;;3.37;;
23410;SDS011;11878;51.774;7.220;2023-07-13T07:10:38;11.83;;;2.80;;
23410;SDS011;11878;51.774;7.220;2023-07-13T07:13:40;18.73;;;3.47;;
23410;SDS011;11878;51.774;7.220;2023-07-13T07:16:41;9.90;;;3.03;;
23410;SDS011;11878;51.774;7.220;2023-07-13T07:19:43;9.50;;;3.33;;
23410;SDS011;11878;51.774;7.220;2023-07-13T07:22:45;8.37;;;3.33;;
23410;SDS011;11878;51.774;7.220;2023-07-13T07:25:47;8.33;;;3.23;;
23410;SDS011;11878;51.774;7.220;2023-07-13T07:28:49;13.70;;;3.67;;
23410;SDS011;11878;51.774;7.220;2023-07-13T07:32:10;8.87;;;3.00;;
23410;SDS011;11878;51.774;7.220;2023-07-13T07:35:32;8.17;;;3.20;;
23410;SDS011;11878;51.774;7.220;2023-07-13T07:38:39;10.90;;;3.23;;
23410;SDS011;11878;51.774;7.220;2023-07-13T07:41:41;11.67;;;3.47;;
23410;SDS011;11878;51.774;7.220;2023-07-13T07:44:56;7.37;;;2.90;;
23410;SDS011;11878;51.774;7.220;2023-07-13T07:47:58;10.23;;;2.90;;
23410;SDS011;11878;51.774;7.220;2023-07-13T07:51:00;7.63;;;3.00;;
23410;SDS011;11878;51.774;7.220;2023-07-13T07:54:03;11.63;;;2.70;;
23410;SDS011;11878;51.774;7.220;2023-07-13T07:57:05;10.70;;;3.23;;
23410;SDS011;11878;51.774;7.220;2023-07-13T08:00:11;7.90;;;3.08;;
23410;SDS011;11878;51.774;7.220;2023-07-13T08:03:16;9.33;;;3.27;;
23410;SDS011;11878;51.774;7.220;2023-07-13T08:06:20;12.63;;;2.70;;
23410;SDS011;11878;51.774;7.220;2023-07-13T08:09:26;10.40;;;3.10;;
23410;SDS011;11878;51.774;7.220;2023-07-13T08:12:27;11.43;;;3.07;;
23410;SDS011;11878;51.774;7.220;2023-07-13T08:15:32;15.02;;;4.35;;
23410;SDS011;11878;51.774;7.220;2023-07-13T08:18:34;15.57;;;3.17;;
23410;SDS011;11878;51.774;7.220;2023-07-13T08:21:36;13.37;;;3.07;;
23410;SDS011;11878;51.774;7.220;2023-07-13T08:24:38;11.87;;;3.30;;
23410;SDS011;11878;51.774;7.220;2023-07-13T08:27:40;15.27;;;3.03;;
23410;SDS011;11878;51.774;7.220;2023-07-13T08:30:41;9.70;;;2.50;;
23410;SDS011;11878;51.774;7.220;2023-07-13T08:33:43;8.37;;;2.37;;
23410;SDS011;11878;51.774;7.220;2023-07-13T08:36:45;7.20;;;3.03;;
23410;SDS011;11878;51.774;7.220;2023-07-13T08:39:47;10.85;;;2.58;;
23410;SDS011;11878;51.774;7.220;2023-07-13T08:42:56;6.43;;;2.30;;
23410;SDS011;11878;51.774;7.220;2023-07-13T08:49:30;8.17;;;2.43;;
23410;SDS011;11878;51.774;7.220;2023-07-13T08:52:37;9.70;;;2.33;;
23410;SDS011;11878;51.774;7.220;2023-07-13T08:55:41;7.85;;;1.95;;
23410;SDS011;11878;51.774;7.220;2023-07-13T08:58:44;10.68;;;2.90;;
23410;SDS011;11878;51.774;7.220;2023-07-13T09:02:05;5.68;;;3.05;;
23410;SDS011;11878;51.774;7.220;2023-07-13T09:05:24;7.88;;;4.50;;
23410;SDS011;11878;51.774;7.220;2023-07-13T09:08:38;12.52;;;4.50;;
23410;SDS011;11878;51.774;7.220;2023-07-13T09:11:53;9.25;;;4.22;;
23410;SDS011;11878;51.774;7.220;2023-07-13T09:15:02;9.32;;;3.70;;
23410;SDS011;11878;51.774;7.220;2023-07-13T09:18:08;10.27;;;2.90;;
23410;SDS011;11878;51.774;7.220;2023-07-13T09:21:37;11.60;;;2.88;;
23410;SDS011;11878;51.774;7.220;2023-07-13T09:28:14;9.30;;;4.43;;
23410;SDS011;11878;51.774;7.220;2023-07-13T09:31:20;8.73;;;5.07;;
23410;SDS011;11878;51.774;7.220;2023-07-13T09:34:27;17.30;;;5.07;;
23410;SDS011;11878;51.774;7.220;2023-07-13T09:37:31;9.82;;;4.10;;
23410;SDS011;11878;51.774;7.220;2023-07-13T09:40:46;8.43;;;5.00;;
23410;SDS011;11878;51.774;7.220;2023-07-13T09:44:12;10.90;;;4.43;;
23410;SDS011;11878;51.774;7.220;2023-07-13T09:47:19;9.38;;;4.20;;
23410;SDS011;11878;51.774;7.220;2023-07-13T09:50:28;9.02;;;4.57;;
23410;SDS011;11878;51.774;7.220;2023-07-13T09:53:30;10.40;;;4.65;;
23410;SDS011;11878;51.774;7.220;2023-07-13T09:56:32;13.23;;;4.35;;
23410;SDS011;11878;51.774;7.220;2023-07-13T09:59:40;9.15;;;3.50;;
23410;SDS011;11878;51.774;7.220;2023-07-13T10:02:44;6.15;;;3.05;;
23410;SDS011;11878;51.774;7.220;2023-07-13T10:05:47;6.95;;;3.40;;
23410;SDS011;11878;51.774;7.220;2023-07-13T10:08:51;8.43;;;2.90;;
23410;SDS011;11878;51.774;7.220;2023-07-13T10:11:53;8.95;;;3.42;;
23410;SDS011;11878;51.774;7.220;2023-07-13T10:14:56;6.72;;;2.33;;
23410;SDS011;11878;51.774;7.220;2023-07-13T10:18:21;8.63;;;2.20;;
23410;SDS011;11878;51.774;7.220;2023-07-13T10:21:26;7.57;;;2.15;;
23410;SDS011;11878;51.774;7.220;2023-07-13T10:24:37;10.85;;;1.92;;
23410;SDS011;11878;51.774;7.220;2023-07-13T10:27:42;10.70;;;2.53;;
23410;SDS011;11878;51.774;7.220;2023-07-13T10:30:45;5.75;;;2.17;;
23410;SDS011;11878;51.774;7.220;2023-07-13T10:33:48;6.07;;;1.67;;
23410;SDS011;11878;51.774;7.220;2023-07-13T10:36:51;3.50;;;1.15;;
23410;SDS011;11878;51.774;7.220;2023-07-13T10:39:53;7.55;;;1.70;;
23410;SDS011;11878;51.774;7.220;2023-07-13T10:42:57;3.65;;;1.85;;
23410;SDS011;11878;51.774;7.220;2023-07-13T10:46:03;4.05;;;1.40;;
23410;SDS011;11878;51.774;7.220;2023-07-13T10:49:12;5.47;;;1.77;;
23410;SDS011;11878;51.774;7.220;2023-07-13T10:59:01;6.03;;;1.98;;
23410;SDS011;11878;51.774;7.220;2023-07-13T11:02:25;7.53;;;1.63;;
23410;SDS011;11878;51.774;7.220;2023-07-13T11:05:31;4.65;;;1.30;;
23410;SDS011;11878;51.774;7.220;2023-07-13T11:08:38;4.50;;;1.33;;
23410;SDS011;11878;51.774;7.220;2023-07-13T11:11:58;4.18;;;1.40;;
23410;SDS011;11878;51.774;7.220;2023-07-13T11:15:43;7.65;;;1.50;;
23410;SDS011;11878;51.774;7.220;2023-07-13T11:18:49;6.93;;;1.77;;
23410;SDS011;11878;51.774;7.220;2023-07-13T11:28:30;4.65;;;1.30;;
23410;SDS011;11878;51.774;7.220;2023-07-13T11:31:32;4.40;;;1.45;;
23410;SDS011;11878;51.774;7.220;2023-07-13T11:34:36;4.78;;;1.48;;
23410;SDS011;11878;51.774;7.220;2023-07-13T11:37:40;6.75;;;1.45;;
23410;SDS011;11878;51.774;7.220;2023-07-13T11:40:42;4.80;;;1.30;;
23410;SDS011;11878;51.774;7.220;2023-07-13T11:43:55;4.22;;;1.30;;
23410;SDS011;11878;51.774;7.220;2023-07-13T11:47:27;4.22;;;1.52;;
23410;SDS011;11878;51.774;7.220;2023-07-13T11:50:32;8.32;;;1.70;;
23410;SDS011;11878;51.774;7.220;2023-07-13T11:53:39;3.53;;;1.42;;
23410;SDS011;11878;51.774;7.220;2023-07-13T11:56:42;12.05;;;2.25;;
23410;SDS011;11878;51.774;7.220;2023-07-13T11:59:44;4.63;;;1.60;;
23410;SDS011;11878;51.774;7.220;2023-07-13T12:02:47;7.57;;;1.35;;
23410;SDS011;11878;51.774;7.220;2023-07-13T12:06:30;4.20;;;1.58;;
23410;SDS011;11878;51.774;7.220;2023-07-13T12:09:26;7.30;;;1.67;;
23410;SDS011;11878;51.774;7.220;2023-07-13T12:12:29;7.18;;;1.10;;
23410;SDS011;11878;51.774;7.220;2023-07-13T12:15:38;1.77;;;1.02;;
23410;SDS011;11878;51.774;7.220;2023-07-13T12:18:42;3.75;;;1.10;;
23410;SDS011;11878;51.774;7.220;2023-07-13T12:21:49;5.25;;;1.70;;
23410;SDS011;11878;51.774;7.220;2023-07-13T12:24:54;4.50;;;1.60;;
23410;SDS011;11878;51.774;7.220;2023-07-13T12:27:57;5.25;;;1.60;;
23410;SDS011;11878;51.774;7.220;2023-07-13T12:31:22;4.45;;;1.40;;
23410;SDS011;11878;51.774;7.220;2023-07-13T12:34:24;3.65;;;1.08;;
23410;SDS011;11878;51.774;7.220;2023-07-13T12:37:27;7.63;;;1.77;;
23410;SDS011;11878;51.774;7.220;2023-07-13T12:40:32;3.05;;;1.35;;
23410;SDS011;11878;51.774;7.220;2023-07-13T12:43:37;7.57;;;1.48;;
23410;SDS011;11878;51.774;7.220;2023-07-13T12:46:39;7.30;;;1.83;;
23410;SDS011;11878;51.774;7.220;2023-07-13T12:49:55;4.35;;;2.35;;
23410;SDS011;11878;51.774;7.220;2023-07-13T12:53:03;7.40;;;2.42;;
23410;SDS011;11878;51.774;7.220;2023-07-13T12:56:15;4.38;;;2.45;;
23410;SDS011;11878;51.774;7.220;2023-07-13T12:59:29;7.07;;;2.72;;
23410;SDS011;11878;51.774;7.220;2023-07-13T13:02:34;4.57;;;2.00;;
23410;SDS011;11878;51.774;7.220;2023-07-13T13:05:36;5.13;;;1.70;;
23410;SDS011;11878;51.774;7.220;2023-07-13T13:08:39;6.15;;;2.13;;
23410;SDS011;11878;51.774;7.220;2023-07-13T13:11:43;6.70;;;2.75;;
23410;SDS011;11878;51.774;7.220;2023-07-13T13:14:45;8.93;;;3.10;;
23410;SDS011;11878;51.774;7.220;2023-07-13T13:17:47;5.03;;;2.95;;
23410;SDS011;11878;51.774;7.220;2023-07-13T13:20:49;6.65;;;3.63;;
23410;SDS011;11878;51.774;7.220;2023-07-13T13:23:52;7.73;;;2.73;;
23410;SDS011;11878;51.774;7.220;2023-07-13T13:26:54;6.80;;;2.87;;
23410;SDS011;11878;51.774;7.220;2023-07-13T13:30:00;5.23;;;1.93;;
23410;SDS011;11878;51.774;7.220;2023-07-13T13:33:04;6.83;;;2.87;;
23410;SDS011;11878;51.774;7.220;2023-07-13T13:36:17;2.57;;;1.50;;
23410;SDS011;11878;51.774;7.220;2023-07-13T13:42:24;3.67;;;1.70;;
23410;SDS011;11878;51.774;7.220;2023-07-13T13:45:28;5.83;;;1.90;;
23410;SDS011;11878;51.774;7.220;2023-07-13T13:48:34;4.30;;;1.63;;
23410;SDS011;11878;51.774;7.220;2023-07-13T13:51:40;4.67;;;1.67;;
23410;SDS011;11878;51.774;7.220;2023-07-13T13:54:42;5.20;;;2.03;;
23410;SDS011;11878;51.774;7.220;2023-07-13T13:57:44;2.57;;;1.63;;
23410;SDS011;11878;51.774;7.220;2023-07-13T14:00:47;5.60;;;1.63;;
23410;SDS011;11878;51.774;7.220;2023-07-13T14:03:50;4.67;;;2.70;;
23410;SDS011;11878;51.774;7.220;2023-07-13T14:06:55;6.57;;;2.30;;
23410;SDS011;11878;51.774;7.220;2023-07-13T14:14:04;6.93;;;2.40;;
23410;SDS011;11878;51.774;7.220;2023-07-13T14:17:17;5.47;;;2.30;;
23410;SDS011;11878;51.774;7.220;2023-07-13T14:20:23;8.10;;;2.20;;
23410;SDS011;11878;51.774;7.220;2023-07-13T14:23:26;3.20;;;2.07;;
23410;SDS011;11878;51.774;7.220;2023-07-13T14:26:29;6.60;;;2.70;;
23410;SDS011;11878;51.774;7.220;2023-07-13T14:29:38;3.67;;;2.43;;
23410;SDS011;11878;51.774;7.220;2023-07-13T14:32:41;5.87;;;2.50;;
23410;SDS011;11878;51.774;7.220;2023-07-13T14:35:43;3.37;;;2.80;;
23410;SDS011;11878;51.774;7.220;2023-07-13T14:38:46;6.53;;;2.50;;
23410;SDS011;11878;51.774;7.220;2023-07-13T14:41:55;6.03;;;2.70;;
23410;SDS011;11878;51.774;7.220;2023-07-13T14:44:58;6.30;;;3.20;;
23410;SDS011;11878;51.774;7.220;2023-07-13T14:48:00;7.20;;;2.90;;
23410;SDS011;11878;51.774;7.220;2023-07-13T14:51:03;6.17;;;3.00;;
23410;SDS011;11878;51.774;7.220;2023-07-13T14:54:07;9.57;;;2.90;;
23410;SDS011;11878;51.774;7.220;2023-07-13T14:57:12;12.57;;;3.40;;
23410;SDS011;11878;51.774;7.220;2023-07-13T15:00:25;10.83;;;3.40;;
23410;SDS011;11878;51.774;7.220;2023-07-13T15:03:28;6.33;;;2.97;;
23410;SDS011;11878;51.774;7.220;2023-07-13T15:06:31;5.47;;;3.20;;
23410;SDS011;11878;51.774;7.220;2023-07-13T15:09:53;5.80;;;3.23;;
23410;SDS011;11878;51.774;7.220;2023-07-13T15:13:00;8.13;;;2.90;;
23410;SDS011;11878;51.774;7.220;2023-07-13T15:16:16;9.53;;;2.63;;
23410;SDS011;11878;51.774;7.220;2023-07-13T15:19:25;6.40;;;2.67;;
23410;SDS011;11878;51.774;7.220;2023-07-13T15:22:28;8.33;;;3.30;;
23410;SDS011;11878;51.774;7.220;2023-07-13T15:25:34;5.60;;;2.67;;
23410;SDS011;11878;51.774;7.220;2023-07-13T15:28:41;8.30;;;3.50;;
23410;SDS011;11878;51.774;7.220;2023-07-13T15:31:45;5.30;;;2.78;;
23410;SDS011;11878;51.774;7.220;2023-07-13T15:34:48;5.07;;;2.87;;
23410;SDS011;11878;51.774;7.220;2023-07-13T15:37:50;8.07;;;2.60;;
23410;SDS011;11878;51.774;7.220;2023-07-13T15:40:55;10.57;;;3.30;;
23410;SDS011;11878;51.774;7.220;2023-07-13T15:43:58;5.82;;;3.10;;
23410;SDS011;11878;51.774;7.220;2023-07-13T15:47:02;6.90;;;2.90;;
23410;SDS011;11878;51.774;7.220;2023-07-13T15:50:05;6.47;;;2.97;;
23410;SDS011;11878;51.774;7.220;2023-07-13T15:53:08;7.40;;;2.90;;
23410;SDS011;11878;51.774;7.220;2023-07-13T15:59:20;6.10;;;2.97;;
23410;SDS011;11878;51.774;7.220;2023-07-13T16:02:23;7.45;;;3.60;;
23410;SDS011;11878;51.774;7.220;2023-07-13T16:05:28;5.43;;;3.33;;
23410;SDS011;11878;51.774;7.220;2023-07-13T16:08:31;8.35;;;4.00;;
23410;SDS011;11878;51.774;7.220;2023-07-13T16:11:35;4.38;;;2.92;;
23410;SDS011;11878;51.774;7.220;2023-07-13T16:14:41;6.50;;;3.08;;
23410;SDS011;11878;51.774;7.220;2023-07-13T16:17:49;8.63;;;2.65;;
23410;SDS011;11878;51.774;7.220;2023-07-13T16:20:53;5.40;;;2.97;;
23410;SDS011;11878;51.774;7.220;2023-07-13T16:23:58;8.03;;;2.73;;
23410;SDS011;11878;51.774;7.220;2023-07-13T16:27:06;3.23;;;1.80;;
23410;SDS011;11878;51.774;7.220;2023-07-13T16:30:19;4.10;;;1.67;;
23410;SDS011;11878;51.774;7.220;2023-07-13T16:33:23;5.97;;;1.70;;
23410;SDS011;11878;51.774;7.220;2023-07-13T16:36:27;3.20;;;1.57;;
23410;SDS011;11878;51.774;7.220;2023-07-13T16:39:37;5.30;;;2.00;;
23410;SDS011;11878;51.774;7.220;2023-07-13T16:42:40;3.73;;;1.57;;
23410;SDS011;11878;51.774;7.220;2023-07-13T16:45:42;3.43;;;1.60;;
23410;SDS011;11878;51.774;7.220;2023-07-13T16:48:45;2.57;;;1.50;;
23410;SDS011;11878;51.774;7.220;2023-07-13T16:51:48;2.00;;;1.60;;
23410;SDS011;11878;51.774;7.220;2023-07-13T16:54:52;6.27;;;1.77;;
23410;SDS011;11878;51.774;7.220;2023-07-13T16:57:55;2.97;;;1.63;;
23410;SDS011;11878;51.774;7.220;2023-07-13T17:01:04;9.73;;;1.80;;
23410;SDS011;11878;51.774;7.220;2023-07-13T17:04:11;2.47;;;1.40;;
23410;SDS011;11878;51.774;7.220;2023-07-13T17:07:17;3.30;;;1.80;;
23410;SDS011;11878;51.774;7.220;2023-07-13T17:10:23;4.47;;;1.67;;
23410;SDS011;11878;51.774;7.220;2023-07-13T17:13:26;3.03;;;1.53;;
23410;SDS011;11878;51.774;7.220;2023-07-13T17:16:32;3.07;;;1.53;;
23410;SDS011;11878;51.774;7.220;2023-07-13T17:19:34;4.77;;;1.70;;
23410;SDS011;11878;51.774;7.220;2023-07-13T17:22:36;3.03;;;1.50;;
23410;SDS011;11878;51.774;7.220;2023-07-13T17:25:41;3.77;;;1.87;;
23410;SDS011;11878;51.774;7.220;2023-07-13T17:28:44;5.17;;;2.40;;
23410;SDS011;11878;51.774;7.220;2023-07-13T17:31:46;3.07;;;2.20;;
23410;SDS011;11878;51.774;7.220;2023-07-13T17:34:49;3.30;;;1.97;;
23410;SDS011;11878;51.774;7.220;2023-07-13T17:37:52;5.97;;;2.30;;
23410;SDS011;11878;51.774;7.220;2023-07-13T17:41:01;4.47;;;2.47;;
23410;SDS011;11878;51.774;7.220;2023-07-13T17:44:06;4.33;;;2.53;;
23410;SDS011;11878;51.774;7.220;2023-07-13T17:47:26;6.17;;;2.40;;
23410;SDS011;11878;51.774;7.220;2023-07-13T17:54:04;4.63;;;2.30;;
23410;SDS011;11878;51.774;7.220;2023-07-13T17:57:26;7.23;;;2.43;;
23410;SDS011;11878;51.774;7.220;2023-07-13T18:00:33;9.03;;;2.50;;
23410;SDS011;11878;51.774;7.220;2023-07-13T18:03:53;8.23;;;2.70;;
23410;SDS011;11878;51.774;7.220;2023-07-13T18:07:02;6.87;;;3.00;;
23410;SDS011;11878;51.774;7.220;2023-07-13T18:10:14;6.15;;;3.97;;
23410;SDS011;11878;51.774;7.220;2023-07-13T18:13:17;6.67;;;3.23;;
23410;SDS011;11878;51.774;7.220;2023-07-13T18:16:24;10.57;;;3.70;;
23410;SDS011;11878;51.774;7.220;2023-07-13T18:19:33;6.75;;;3.42;;
23410;SDS011;11878;51.774;7.220;2023-07-13T18:22:50;9.00;;;3.73;;
23410;SDS011;11878;51.774;7.220;2023-07-13T18:25:55;5.70;;;3.90;;
23410;SDS011;11878;51.774;7.220;2023-07-13T18:28:59;6.63;;;4.17;;
23410;SDS011;11878;51.774;7.220;2023-07-13T18:32:16;6.00;;;3.23;;
23410;SDS011;11878;51.774;7.220;2023-07-13T18:35:29;6.87;;;3.70;;
23410;SDS011;11878;51.774;7.220;2023-07-13T18:38:36;14.73;;;3.70;;
23410;SDS011;11878;51.774;7.220;2023-07-13T18:41:38;7.00;;;3.80;;
23410;SDS011;11878;51.774;7.220;2023-07-13T18:44:56;3.60;;;2.97;;
23410;SDS011;11878;51.774;7.220;2023-07-13T18:48:02;9.73;;;4.00;;
23410;SDS011;11878;51.774;7.220;2023-07-13T18:51:10;5.83;;;3.43;;
23410;SDS011;11878;51.774;7.220;2023-07-13T18:54:15;5.27;;;3.37;;
23410;SDS011;11878;51.774;7.220;2023-07-13T18:57:29;5.17;;;3.13;;
23410;SDS011;11878;51.774;7.220;2023-07-13T19:00:32;6.67;;;3.20;;
23410;SDS011;11878;51.774;7.220;2023-07-13T19:03:45;4.77;;;3.17;;
23410;SDS011;11878;51.774;7.220;2023-07-13T19:07:02;8.60;;;3.07;;
23410;SDS011;11878;51.774;7.220;2023-07-13T19:10:17;9.30;;;3.60;;